createdAt,value
2023-02-11T00:01:25.120Z,1.27
2023-02-11T00:03:53.452Z,1.29
2023-02-11T00:06:21.076Z,1.46
2023-02-11T00:08:48.713Z,1.55
2023-02-11T00:11:18.049Z,1.68
2023-02-11T00:13:48.159Z,1.71
2023-02-11T00:16:17.830Z,1.76
2023-02-11T00:18:45.690Z,1.88
2023-02-11T00:21:15.785Z,2.01
2023-02-11T00:23:43.567Z,2.32
2023-02-11T00:26:15.019Z,2.50
2023-02-11T00:28:43.981Z,2.20
2023-02-11T00:31:13.875Z,2.70
2023-02-11T00:33:41.820Z,2.72
2023-02-11T00:36:12.862Z,2.72
2023-02-11T00:38:40.652Z,2.67
2023-02-11T00:41:08.349Z,2.63
2023-02-11T00:43:36.433Z,2.67
2023-02-11T00:46:04.450Z,2.70
2023-02-11T00:48:33.793Z,2.57
2023-02-11T00:51:01.774Z,2.62
2023-02-11T00:53:29.463Z,2.65
2023-02-11T00:55:57.148Z,2.65
2023-02-11T00:58:26.661Z,2.72
2023-02-11T01:00:56.073Z,2.51
2023-02-11T01:03:25.503Z,2.48
2023-02-11T01:05:54.595Z,2.55
2023-02-11T01:08:22.553Z,2.59
2023-02-11T01:10:55.879Z,2.54
2023-02-11T01:13:24.332Z,2.69
2023-02-11T01:15:52.496Z,2.80
2023-02-11T01:18:20.572Z,2.66
2023-02-11T01:20:50.358Z,2.61
2023-02-11T01:23:19.506Z,2.87
2023-02-11T01:25:48.303Z,2.90
2023-02-11T01:28:18.251Z,2.81
2023-02-11T01:30:46.082Z,2.93
2023-02-11T01:33:13.855Z,2.81
2023-02-11T01:35:42.556Z,2.88
2023-02-11T01:38:16.529Z,2.96
2023-02-11T01:40:49.942Z,3.14
2023-02-11T01:43:17.651Z,2.95
2023-02-11T01:45:59.366Z,3.19
2023-02-11T01:48:32.058Z,3.20
2023-02-11T01:51:05.093Z,3.14
2023-02-11T01:53:52.455Z,3.14
2023-02-11T01:56:39.426Z,3.07
2023-02-11T01:59:12.587Z,3.05
2023-02-11T02:01:46.903Z,3.02
2023-02-11T02:04:19.829Z,3.21
2023-02-11T02:06:51.547Z,3.17
2023-02-11T02:09:23.549Z,3.10
2023-02-11T02:11:52.999Z,3.09
2023-02-11T02:14:21.401Z,2.99
2023-02-11T02:16:49.199Z,3.09
2023-02-11T02:19:49.813Z,3.12
2023-02-11T02:22:38.195Z,3.17
2023-02-11T02:25:29.348Z,3.26
2023-02-11T02:28:13.899Z,3.28
2023-02-11T02:31:04.223Z,3.10
2023-02-11T02:33:43.205Z,3.25
2023-02-11T02:36:18.602Z,3.34
2023-02-11T02:38:52.167Z,3.07
2023-02-11T02:41:22.307Z,3.24
2023-02-11T02:43:51.994Z,3.14
2023-02-11T02:46:22.493Z,3.06
2023-02-11T02:48:53.464Z,3.06
2023-02-11T02:51:56.368Z,2.99
2023-02-11T02:54:54.690Z,2.89
2023-02-11T02:57:31.749Z,2.59
2023-02-11T03:00:13.197Z,2.91
2023-02-11T03:02:49.883Z,2.83
2023-02-11T03:05:24.412Z,2.88
2023-02-11T03:07:59.625Z,2.80
2023-02-11T03:10:31.321Z,2.88
2023-02-11T03:12:59.671Z,2.84
2023-02-11T03:15:32.615Z,2.84
2023-02-11T03:18:02.877Z,2.84
2023-02-11T03:20:37.419Z,2.77
2023-02-11T03:23:12.532Z,2.71
2023-02-11T03:25:46.654Z,2.75
2023-02-11T03:28:19.021Z,2.84
2023-02-11T03:30:54.540Z,2.94
2023-02-11T03:33:28.373Z,2.93
2023-02-11T03:36:01.553Z,2.84
2023-02-11T03:38:34.029Z,3.05
2023-02-11T03:41:05.781Z,2.85
2023-02-11T03:43:37.216Z,2.94
2023-02-11T03:46:06.042Z,2.92
2023-02-11T03:48:38.541Z,2.98
2023-02-11T03:51:10.437Z,3.04
2023-02-11T03:53:42.251Z,3.10
2023-02-11T03:56:14.147Z,3.19
2023-02-11T03:58:41.841Z,3.07
2023-02-11T04:01:09.926Z,2.87
2023-02-11T04:03:37.625Z,3.06
2023-02-11T04:06:07.354Z,3.06
2023-02-11T04:08:35.108Z,3.06
2023-02-11T04:11:02.796Z,3.04
2023-02-11T04:13:30.577Z,2.83
2023-02-11T04:15:58.275Z,2.72
2023-02-11T04:18:25.907Z,2.81
2023-02-11T04:20:53.526Z,2.72
2023-02-11T04:23:22.560Z,2.51
2023-02-11T04:25:51.219Z,2.57
2023-02-11T04:28:19.141Z,2.56
2023-02-11T04:30:47.294Z,2.55
2023-02-11T04:33:14.885Z,2.52
2023-02-11T04:35:42.588Z,2.44
2023-02-11T04:38:10.277Z,2.44
2023-02-11T04:40:39.393Z,2.27
2023-02-11T04:43:07.317Z,2.31
2023-02-11T04:45:35.091Z,2.15
2023-02-11T04:48:03.058Z,2.24
2023-02-11T04:50:31.310Z,2.21
2023-02-11T04:52:59.146Z,2.32
2023-02-11T04:55:27.000Z,2.20
2023-02-11T04:57:56.254Z,2.26
2023-02-11T05:00:23.965Z,2.14
2023-02-11T05:02:52.012Z,2.17
2023-02-11T05:05:19.863Z,1.90
2023-02-11T05:07:48.286Z,2.09
2023-02-11T05:10:16.233Z,1.98
2023-02-11T05:12:43.841Z,1.99
2023-02-11T05:15:12.869Z,2.07
2023-02-11T05:17:41.043Z,2.15
2023-02-11T05:20:09.818Z,2.01
2023-02-11T05:22:37.506Z,1.93
2023-02-11T05:25:05.618Z,2.05
2023-02-11T05:27:33.318Z,2.06
2023-02-11T05:30:00.996Z,1.91
2023-02-11T05:32:30.017Z,2.09
2023-02-11T05:34:57.650Z,2.33
2023-02-11T05:37:25.397Z,2.56
2023-02-11T05:39:53.177Z,2.43
2023-02-11T05:42:20.817Z,2.56
2023-02-11T05:44:50.529Z,2.52
2023-02-11T05:47:18.402Z,2.56
2023-02-11T05:49:47.417Z,2.55
2023-02-11T05:52:15.062Z,2.55
2023-02-11T05:54:43.238Z,2.51
2023-02-11T05:57:10.952Z,2.66
2023-02-11T05:59:38.772Z,2.57
2023-02-11T06:02:07.904Z,2.44
2023-02-11T06:04:35.762Z,2.35
2023-02-11T06:07:05.094Z,2.52
2023-02-11T06:09:32.816Z,2.35
2023-02-11T06:12:00.475Z,2.44
2023-02-11T06:14:28.278Z,2.50
2023-02-11T06:16:55.864Z,2.55
2023-02-11T06:19:23.517Z,2.60
2023-02-11T06:21:51.186Z,2.55
2023-02-11T06:24:38.503Z,2.53
2023-02-11T06:27:07.964Z,2.20
2023-02-11T06:29:35.819Z,2.42
2023-02-11T06:32:03.597Z,2.43
2023-02-11T06:34:31.506Z,2.42
2023-02-11T06:36:59.122Z,2.63
2023-02-11T06:39:28.210Z,2.63
2023-02-11T06:41:56.064Z,2.62
2023-02-11T06:44:23.774Z,2.46
2023-02-11T06:46:51.495Z,2.51
2023-02-11T06:49:19.146Z,2.41
2023-02-11T06:51:47.027Z,2.35
2023-02-11T06:54:14.792Z,2.36
2023-02-11T06:56:43.824Z,2.41
2023-02-11T06:59:15.945Z,2.42
2023-02-11T07:01:43.733Z,2.39
2023-02-11T07:04:11.684Z,2.50
2023-02-11T07:06:39.305Z,2.39
2023-02-11T07:09:07.000Z,2.52
2023-02-11T07:11:35.056Z,2.43
2023-02-11T07:14:06.758Z,2.46
2023-02-11T07:16:36.120Z,2.44
2023-02-11T07:19:03.928Z,2.42
2023-02-11T07:21:31.863Z,2.47
2023-02-11T07:23:59.614Z,2.46
2023-02-11T07:26:27.262Z,2.57
2023-02-11T07:28:55.164Z,2.66
2023-02-11T07:31:25.980Z,2.63
2023-02-11T07:33:54.615Z,2.63
2023-02-11T07:36:23.116Z,2.68
2023-02-11T07:38:50.985Z,2.52
2023-02-11T07:41:20.906Z,2.57
2023-02-11T07:43:48.744Z,2.50
2023-02-11T07:46:18.864Z,2.69
2023-02-11T07:48:48.366Z,2.93
2023-02-11T07:51:18.090Z,3.01
2023-02-11T07:53:46.750Z,3.04
2023-02-11T07:56:15.892Z,3.17
2023-02-11T07:58:43.771Z,3.33
2023-02-11T08:01:13.614Z,3.37
2023-02-11T08:03:42.657Z,3.41
2023-02-11T08:06:13.933Z,3.37
2023-02-11T08:08:42.171Z,3.29
2023-02-11T08:11:11.331Z,3.35
2023-02-11T08:13:39.513Z,3.57
2023-02-11T08:16:08.283Z,3.37
2023-02-11T08:18:36.750Z,3.55
2023-02-11T08:21:08.459Z,3.75
2023-02-11T08:23:39.210Z,3.75
2023-02-11T08:26:08.698Z,3.92
2023-02-11T08:28:37.359Z,3.99
2023-02-11T08:31:07.575Z,4.11
2023-02-11T08:33:35.630Z,4.08
2023-02-11T08:36:09.791Z,3.89
2023-02-11T08:38:39.053Z,3.85
2023-02-11T08:41:06.809Z,3.34
2023-02-11T08:43:34.461Z,3.25
2023-02-11T08:46:02.886Z,3.41
2023-02-11T08:48:31.392Z,3.39
2023-02-11T08:50:59.045Z,3.72
2023-02-11T08:53:26.768Z,3.77
2023-02-11T08:55:56.570Z,3.82
2023-02-11T08:58:24.255Z,4.08
2023-02-11T09:00:52.238Z,3.89
2023-02-11T09:03:20.098Z,3.94
2023-02-11T09:05:49.813Z,3.83
2023-02-11T09:08:18.065Z,4.07
2023-02-11T09:10:45.740Z,4.22
2023-02-11T09:13:14.795Z,4.36
2023-02-11T09:15:46.251Z,4.44
2023-02-11T09:18:13.872Z,4.63
2023-02-11T09:20:41.538Z,4.69
2023-02-11T09:23:09.440Z,4.59
2023-02-11T09:25:40.142Z,4.75
2023-02-11T09:28:08.076Z,4.74
2023-02-11T09:30:37.389Z,4.59
2023-02-11T09:33:05.565Z,4.80
2023-02-11T09:35:34.656Z,4.62
2023-02-11T09:38:02.307Z,4.69
2023-02-11T09:40:30.019Z,4.41
2023-02-11T09:43:08.801Z,4.59
2023-02-11T09:45:38.311Z,4.59
2023-02-11T09:48:13.625Z,4.69
2023-02-11T09:50:44.866Z,4.85
2023-02-11T09:53:18.807Z,4.91
2023-02-11T09:55:49.041Z,4.93
2023-02-11T09:58:21.439Z,5.13
2023-02-11T10:00:55.626Z,4.98
2023-02-11T10:03:48.136Z,5.10
2023-02-11T10:06:38.132Z,5.22
2023-02-11T10:09:20.704Z,5.47
2023-02-11T10:11:59.131Z,5.30
2023-02-11T10:14:47.166Z,5.84
2023-02-11T10:17:23.531Z,6.25
2023-02-11T10:20:04.086Z,6.40
2023-02-11T10:22:36.086Z,7.61
2023-02-11T10:25:18.069Z,7.47
2023-02-11T10:27:46.024Z,7.35
2023-02-11T10:30:23.197Z,7.28
2023-02-11T10:32:57.123Z,7.17
2023-02-11T10:35:27.216Z,7.46
2023-02-11T10:37:55.788Z,7.20
2023-02-11T10:40:25.686Z,7.59
2023-02-11T10:42:55.968Z,7.39
2023-02-11T10:45:29.080Z,6.87
2023-02-11T10:47:59.438Z,6.55
2023-02-11T10:50:28.982Z,6.48
2023-02-11T10:53:13.247Z,6.52
2023-02-11T10:55:51.342Z,6.45
2023-02-11T10:58:26.109Z,6.32
2023-02-11T11:00:56.423Z,6.41
2023-02-11T11:03:28.237Z,6.58
2023-02-11T11:05:58.822Z,6.61
2023-02-11T11:08:41.085Z,6.58
2023-02-11T11:11:11.298Z,6.82
2023-02-11T11:13:40.488Z,6.73
2023-02-11T11:16:24.609Z,6.77
2023-02-11T11:18:55.069Z,7.00
2023-02-11T11:21:25.075Z,7.04
2023-02-11T11:23:56.535Z,7.07
2023-02-11T11:26:26.223Z,7.31
2023-02-11T11:29:00.960Z,7.34
2023-02-11T11:31:33.506Z,7.31
2023-02-11T11:34:18.411Z,6.95
2023-02-11T11:36:46.424Z,7.26
2023-02-11T11:39:22.164Z,7.30
2023-02-11T11:41:56.185Z,7.42
2023-02-11T11:44:32.657Z,7.49
2023-02-11T11:47:21.079Z,7.43
2023-02-11T11:49:58.773Z,8.06
2023-02-11T11:52:36.712Z,8.13
2023-02-11T11:55:13.943Z,7.99
2023-02-11T11:57:42.158Z,7.86
2023-02-11T12:00:17.791Z,8.57
2023-02-11T12:03:21.135Z,8.98
2023-02-11T12:06:04.660Z,9.07
2023-02-11T12:08:45.190Z,8.97
2023-02-11T12:11:22.572Z,8.69
2023-02-11T12:14:05.890Z,8.59
2023-02-11T12:16:43.477Z,8.41
2023-02-11T12:19:39.713Z,8.58
2023-02-11T12:22:12.235Z,8.50
2023-02-11T12:25:01.116Z,8.17
2023-02-11T12:27:43.438Z,8.07
2023-02-11T12:30:22.591Z,8.10
2023-02-11T12:32:59.671Z,8.35
2023-02-11T12:35:33.108Z,8.28
2023-02-11T12:38:18.843Z,8.20
2023-02-11T12:40:50.989Z,8.13
2023-02-11T12:43:24.092Z,8.17
2023-02-11T12:46:34.869Z,8.20
2023-02-11T12:49:31.399Z,8.46
2023-02-11T12:52:26.211Z,8.47
2023-02-11T12:55:00.319Z,8.48
2023-02-11T12:57:32.015Z,8.51
2023-02-11T13:00:04.262Z,8.56
2023-02-11T13:02:42.258Z,8.48
2023-02-11T13:05:24.371Z,8.25
2023-02-11T13:07:57.893Z,8.29
2023-02-11T13:10:31.213Z,8.28
2023-02-11T13:13:19.373Z,8.26
2023-02-11T13:15:54.869Z,8.24
2023-02-11T13:18:38.056Z,8.14
2023-02-11T13:21:30.680Z,8.24
2023-02-11T13:24:09.158Z,8.27
2023-02-11T13:26:43.986Z,8.35
2023-02-11T13:29:22.894Z,8.48
2023-02-11T13:31:55.223Z,8.62
2023-02-11T13:34:27.745Z,8.31
2023-02-11T13:36:56.875Z,8.71
2023-02-11T13:39:24.750Z,8.65
2023-02-11T13:42:03.494Z,8.65
2023-02-11T13:44:35.130Z,8.53
2023-02-11T13:47:05.591Z,8.46
2023-02-11T13:49:37.489Z,8.41
2023-02-11T13:52:17.696Z,8.40
2023-02-11T13:54:49.946Z,8.14
2023-02-11T13:57:28.479Z,8.22
2023-02-11T13:59:57.363Z,8.30
2023-02-11T14:02:46.591Z,8.26
2023-02-11T14:05:40.989Z,8.28
2023-02-11T14:08:33.489Z,8.29
2023-02-11T14:11:02.620Z,8.13
2023-02-11T14:13:32.483Z,8.14
2023-02-11T14:16:11.049Z,7.91
2023-02-11T14:19:00.906Z,8.13
2023-02-11T14:21:36.343Z,8.10
2023-02-11T14:24:46.399Z,8.08
2023-02-11T14:27:21.559Z,7.83
2023-02-11T14:30:03.282Z,8.03
2023-02-11T14:32:40.869Z,7.87
2023-02-11T14:35:15.154Z,7.85
2023-02-11T14:37:53.645Z,7.83
2023-02-11T14:40:29.032Z,7.85
2023-02-11T14:42:59.245Z,7.77
2023-02-11T14:45:31.017Z,7.70
2023-02-11T14:48:04.348Z,7.82
2023-02-11T14:50:40.226Z,7.79
2023-02-11T14:53:13.442Z,7.76
2023-02-11T14:55:42.821Z,7.77
2023-02-11T14:58:16.285Z,7.68
2023-02-11T15:00:55.102Z,7.64
2023-02-11T15:03:27.977Z,7.76
2023-02-11T15:05:57.441Z,7.80
2023-02-11T15:08:25.195Z,7.78
2023-02-11T15:10:55.255Z,7.76
2023-02-11T15:13:27.124Z,7.71
2023-02-11T15:16:01.631Z,7.74
2023-02-11T15:18:35.208Z,7.75
2023-02-11T15:21:03.038Z,7.67
2023-02-11T15:23:32.184Z,7.68
2023-02-11T15:26:04.657Z,7.62
2023-02-11T15:28:35.525Z,7.49
2023-02-11T15:31:07.068Z,7.60
2023-02-11T15:33:34.763Z,7.58
2023-02-11T15:36:03.893Z,8.28
2023-02-11T15:38:32.092Z,8.08
2023-02-11T15:41:02.059Z,7.92
2023-02-11T15:43:43.155Z,7.87
2023-02-11T15:46:16.417Z,7.73
2023-02-11T15:48:47.044Z,7.64
2023-02-11T15:51:21.810Z,7.60
2023-02-11T15:53:53.027Z,7.50
2023-02-11T15:56:25.327Z,7.42
2023-02-11T15:58:55.493Z,7.39
2023-02-11T16:01:33.898Z,7.33
2023-02-11T16:04:03.539Z,7.28
2023-02-11T16:06:37.989Z,7.26
2023-02-11T16:09:22.864Z,7.24
2023-02-11T16:11:58.975Z,7.18
2023-02-11T16:14:31.701Z,7.07
2023-02-11T16:17:04.549Z,7.11
2023-02-11T16:19:34.347Z,7.10
2023-02-11T16:22:08.725Z,7.05
2023-02-11T16:24:38.758Z,6.87
2023-02-11T16:27:09.389Z,6.89
2023-02-11T16:29:38.149Z,6.79
2023-02-11T16:32:09.585Z,6.81
2023-02-11T16:34:38.170Z,6.85
2023-02-11T16:37:06.903Z,6.53
2023-02-11T16:39:34.929Z,6.82
2023-02-11T16:42:04.744Z,6.80
2023-02-11T16:44:34.564Z,6.78
2023-02-11T16:47:03.934Z,6.72
2023-02-11T16:49:36.793Z,6.66
2023-02-11T16:52:10.117Z,6.61
2023-02-11T16:54:37.696Z,6.57
2023-02-11T16:57:10.151Z,6.55
2023-02-11T16:59:37.751Z,6.53
2023-02-11T17:02:05.550Z,6.49
2023-02-11T17:04:34.813Z,6.44
2023-02-11T17:07:02.491Z,6.39
2023-02-11T17:09:31.202Z,6.27
2023-02-11T17:11:59.176Z,6.25
2023-02-11T17:14:26.963Z,6.26
2023-02-11T17:16:54.574Z,6.26
2023-02-11T17:19:22.242Z,6.19
2023-02-11T17:21:53.402Z,5.97
2023-02-11T17:24:22.156Z,5.97
2023-02-11T17:26:50.740Z,5.96
2023-02-11T17:29:20.539Z,5.90
2023-02-11T17:31:48.835Z,5.97
2023-02-11T17:34:17.752Z,5.90
2023-02-11T17:36:45.439Z,5.98
2023-02-11T17:39:14.619Z,6.04
2023-02-11T17:41:42.571Z,6.00
2023-02-11T17:44:14.030Z,5.87
2023-02-11T17:46:41.743Z,5.95
2023-02-11T17:49:09.935Z,6.05
2023-02-11T17:51:39.564Z,6.09
2023-02-11T17:54:09.786Z,5.98
2023-02-11T17:56:38.965Z,5.98
2023-02-11T17:59:08.264Z,5.99
2023-02-11T18:01:37.679Z,6.04
2023-02-11T18:04:06.972Z,6.04
2023-02-11T18:06:35.192Z,5.94
2023-02-11T18:09:04.262Z,5.86
2023-02-11T18:11:34.354Z,5.68
2023-02-11T18:14:04.592Z,5.67
2023-02-11T18:16:34.911Z,5.70
2023-02-11T18:19:03.754Z,5.76
2023-02-11T18:21:31.527Z,5.61
2023-02-11T18:24:05.803Z,5.69
2023-02-11T18:26:33.974Z,5.82
2023-02-11T18:29:03.784Z,5.83
2023-02-11T18:31:31.543Z,5.80
2023-02-11T18:33:59.308Z,5.88
2023-02-11T18:36:27.045Z,5.82
2023-02-11T18:38:54.746Z,5.70
2023-02-11T18:41:22.671Z,5.86
2023-02-11T18:43:50.599Z,5.98
2023-02-11T18:46:20.272Z,5.95
2023-02-11T18:48:49.235Z,5.92
2023-02-11T18:51:19.229Z,5.92
2023-02-11T18:53:47.093Z,6.00
2023-02-11T18:56:16.756Z,6.01
2023-02-11T18:58:44.443Z,6.00
2023-02-11T19:01:14.637Z,6.02
2023-02-11T19:03:43.748Z,5.98
2023-02-11T19:06:15.939Z,5.95
2023-02-11T19:08:43.691Z,5.92
2023-02-11T19:11:11.521Z,5.91
2023-02-11T19:13:40.027Z,5.85
2023-02-11T19:16:11.297Z,5.89
2023-02-11T19:18:39.216Z,5.80
2023-02-11T19:21:12.768Z,5.82
2023-02-11T19:23:41.078Z,5.78
2023-02-11T19:26:08.994Z,5.85
2023-02-11T19:28:37.351Z,5.87
2023-02-11T19:31:09.631Z,5.86
2023-02-11T19:33:37.519Z,5.72
2023-02-11T19:36:07.058Z,5.85
2023-02-11T19:38:36.761Z,5.64
2023-02-11T19:41:04.999Z,5.77
2023-02-11T19:43:32.719Z,5.83
2023-02-11T19:46:02.646Z,5.74
2023-02-11T19:48:30.928Z,5.80
2023-02-11T19:50:58.953Z,5.84
2023-02-11T19:53:26.652Z,5.85
2023-02-11T19:55:55.587Z,5.80
2023-02-11T19:58:23.215Z,5.89
2023-02-11T20:00:50.873Z,5.93
2023-02-11T20:03:18.540Z,5.87
2023-02-11T20:05:47.715Z,5.84
2023-02-11T20:08:17.027Z,5.81
2023-02-11T20:10:44.899Z,5.86
2023-02-11T20:13:14.093Z,5.87
2023-02-11T20:15:41.912Z,5.88
2023-02-11T20:18:09.589Z,5.90
2023-02-11T20:20:39.130Z,5.93
2023-02-11T20:23:06.740Z,5.83
2023-02-11T20:25:34.607Z,5.83
2023-02-11T20:28:02.358Z,5.78
2023-02-11T20:30:31.371Z,5.77
2023-02-11T20:32:59.414Z,5.73
2023-02-11T20:35:27.089Z,5.80
2023-02-11T20:37:54.769Z,5.81
2023-02-11T20:40:22.423Z,5.86
2023-02-11T20:42:50.269Z,5.83
2023-02-11T20:45:18.101Z,5.67
2023-02-11T20:47:47.181Z,5.75
2023-02-11T20:50:14.883Z,5.77
2023-02-11T20:52:42.586Z,5.79
2023-02-11T20:55:10.209Z,5.73
2023-02-11T20:57:37.807Z,5.81
2023-02-11T21:00:06.318Z,5.85
2023-02-11T21:02:34.123Z,5.75
2023-02-11T21:05:03.228Z,5.79
2023-02-11T21:07:31.334Z,5.84
2023-02-11T21:09:58.946Z,5.84
2023-02-11T21:12:26.657Z,5.86
2023-02-11T21:14:54.836Z,5.80
2023-02-11T21:17:22.472Z,5.81
2023-02-11T21:19:50.134Z,5.65
2023-02-11T21:22:19.124Z,5.59
2023-02-11T21:24:46.763Z,5.75
2023-02-11T21:27:14.438Z,5.83
2023-02-11T21:29:53.501Z,5.89
2023-02-11T21:32:22.024Z,5.89
2023-02-11T21:34:49.662Z,5.87
2023-02-11T21:37:18.678Z,5.80
2023-02-11T21:39:46.328Z,5.82
2023-02-11T21:42:14.032Z,5.83
2023-02-11T21:44:41.706Z,5.80
2023-02-11T21:47:09.307Z,5.82
2023-02-11T21:49:37.109Z,5.79
2023-02-11T21:52:05.245Z,5.78
2023-02-11T21:54:34.234Z,5.79
2023-02-11T21:57:03.011Z,5.78
2023-02-11T21:59:31.646Z,5.70
2023-02-11T22:01:59.748Z,5.76
2023-02-11T22:04:27.781Z,5.81
2023-02-11T22:06:55.444Z,5.81
2023-02-11T22:09:23.081Z,5.80
2023-02-11T22:11:52.997Z,5.79
2023-02-11T22:14:20.712Z,5.82
2023-02-11T22:16:48.902Z,5.65
2023-02-11T22:19:17.240Z,5.65
2023-02-11T22:21:44.927Z,5.69
2023-02-11T22:24:12.560Z,5.75
2023-02-11T22:26:40.376Z,5.66
2023-02-11T22:29:09.420Z,5.61
2023-02-11T22:31:37.363Z,5.59
2023-02-11T22:34:06.480Z,5.59
2023-02-11T22:36:36.373Z,5.61
2023-02-11T22:39:06.859Z,5.57
2023-02-11T22:41:34.992Z,5.59
2023-02-11T22:44:02.655Z,5.62
2023-02-11T22:46:31.695Z,5.54
2023-02-11T22:48:59.374Z,5.58
2023-02-11T22:51:29.084Z,5.53
2023-02-11T22:53:58.398Z,5.52
2023-02-11T22:56:27.451Z,5.52
2023-02-11T22:58:58.889Z,5.56
2023-02-11T23:01:26.997Z,5.57
2023-02-11T23:03:56.230Z,5.49
2023-02-11T23:06:23.967Z,5.47
2023-02-11T23:08:51.613Z,5.28
2023-02-11T23:11:21.701Z,5.39
2023-02-11T23:13:50.951Z,5.37
2023-02-11T23:16:21.158Z,5.34
2023-02-11T23:18:50.003Z,5.29
2023-02-11T23:21:22.611Z,5.40
2023-02-11T23:23:55.883Z,5.46
2023-02-11T23:26:23.723Z,5.46
2023-02-11T23:28:51.669Z,5.45
2023-02-11T23:31:23.053Z,5.36
2023-02-11T23:33:51.409Z,5.41
2023-02-11T23:36:21.799Z,5.46
2023-02-11T23:38:50.048Z,5.36
2023-02-11T23:41:17.969Z,5.49
2023-02-11T23:43:50.424Z,5.49
2023-02-11T23:46:18.212Z,5.52
2023-02-11T23:48:46.044Z,5.42
2023-02-11T23:51:13.685Z,5.41
2023-02-11T23:53:42.736Z,5.52
2023-02-11T23:56:14.069Z,5.54
2023-02-11T23:58:41.779Z,5.61
